createdAt,value
2022-09-28T00:00:42.888Z,79.1
2022-09-28T00:01:58.090Z,79.2
2022-09-28T00:03:14.279Z,79.1
2022-09-28T00:04:30.238Z,79.2
2022-09-28T00:05:46.653Z,79.3
2022-09-28T00:07:02.848Z,79.2
2022-09-28T00:08:19.033Z,79.1
2022-09-28T00:09:35.226Z,79.2
2022-09-28T00:10:51.423Z,79.2
2022-09-28T00:12:07.373Z,79.2
2022-09-28T00:13:23.795Z,79
2022-09-28T00:14:39.750Z,79.2
2022-09-28T00:15:56.153Z,79.2
2022-09-28T00:17:12.359Z,79.2
2022-09-28T00:18:27.568Z,79
2022-09-28T00:19:43.538Z,79.2
2022-09-28T00:20:59.940Z,79.1
2022-09-28T00:22:16.141Z,78.9
2022-09-28T00:23:32.102Z,79
2022-09-28T00:24:48.293Z,78.9
2022-09-28T00:26:04.693Z,78.9
2022-09-28T00:27:20.657Z,79.2
2022-09-28T00:28:37.091Z,79.1
2022-09-28T00:29:53.033Z,79.1
2022-09-28T00:31:09.449Z,79.1
2022-09-28T00:32:25.639Z,79.2
2022-09-28T00:33:41.844Z,79.2
2022-09-28T00:34:56.813Z,79.3
2022-09-28T00:36:12.994Z,79.3
2022-09-28T00:37:29.430Z,79.3
2022-09-28T00:38:45.602Z,79.4
2022-09-28T00:40:01.788Z,79.4
2022-09-28T00:41:17.985Z,79.5
2022-09-28T00:42:33.950Z,79.5
2022-09-28T00:43:50.374Z,79.4
2022-09-28T00:45:06.311Z,79.4
2022-09-28T00:46:22.744Z,79.5
2022-09-28T00:47:38.930Z,79.5
2022-09-28T00:48:55.120Z,79.5
2022-09-28T00:50:11.086Z,79.5
2022-09-28T00:51:26.527Z,79.6
2022-09-28T00:52:42.479Z,79.5
2022-09-28T00:53:58.891Z,79.6
2022-09-28T00:55:15.092Z,79.7
2022-09-28T00:56:31.044Z,79.6
2022-09-28T00:57:47.232Z,79.7
2022-09-28T00:59:03.651Z,79.6
2022-09-28T01:00:19.591Z,79.7
2022-09-28T01:01:35.797Z,79.5
2022-09-28T01:02:51.978Z,79.6
2022-09-28T01:04:08.411Z,79.4
2022-09-28T01:05:24.363Z,79.6
2022-09-28T01:06:40.777Z,79.6
2022-09-28T01:07:55.760Z,79.7
2022-09-28T01:09:12.183Z,79.7
2022-09-28T01:10:28.375Z,79.7
2022-09-28T01:11:44.564Z,79.8
2022-09-28T01:13:00.511Z,79.7
2022-09-28T01:14:16.691Z,79.7
2022-09-28T01:15:32.886Z,79.8
2022-09-28T01:16:49.312Z,79.6
2022-09-28T01:18:05.270Z,79.6
2022-09-28T01:19:21.687Z,79.7
2022-09-28T01:20:37.639Z,79.7
2022-09-28T01:21:53.826Z,79.6
2022-09-28T01:23:10.269Z,79.6
2022-09-28T01:24:25.464Z,79.7
2022-09-28T01:25:41.404Z,79.7
2022-09-28T01:26:57.845Z,79.8
2022-09-28T01:28:13.793Z,79.7
2022-09-28T01:29:30.230Z,79.7
2022-09-28T01:30:46.170Z,79.8
2022-09-28T01:32:02.357Z,79.9
2022-09-28T01:33:18.798Z,79.8
2022-09-28T01:34:34.731Z,79.9
2022-09-28T01:35:50.914Z,79.9
2022-09-28T01:37:07.360Z,79.9
2022-09-28T01:38:23.536Z,80
2022-09-28T01:39:39.489Z,79.9
2022-09-28T01:40:54.947Z,79.9
2022-09-28T01:42:11.125Z,80
2022-09-28T01:43:27.078Z,80
2022-09-28T01:44:43.505Z,80
2022-09-28T01:45:59.449Z,80
2022-09-28T01:47:15.633Z,80
2022-09-28T01:48:32.077Z,80
2022-09-28T01:49:48.021Z,80
2022-09-28T01:51:04.202Z,80.1
2022-09-28T01:52:20.395Z,80.1
2022-09-28T01:53:36.831Z,80.1
2022-09-28T01:54:53.023Z,80.1
2022-09-28T01:56:09.212Z,80.1
2022-09-28T01:57:24.413Z,80.2
2022-09-28T01:58:40.356Z,80.2
2022-09-28T01:59:56.537Z,80.2
2022-09-28T02:01:12.980Z,80.1
2022-09-28T02:02:29.161Z,80.2
2022-09-28T02:03:45.103Z,80.1
2022-09-28T02:05:01.303Z,80.1
2022-09-28T02:06:17.492Z,80.1
2022-09-28T02:07:33.925Z,80.2
2022-09-28T02:08:49.861Z,80.1
2022-09-28T02:10:06.296Z,80.2
2022-09-28T02:11:22.486Z,80.2
2022-09-28T02:12:38.676Z,80
2022-09-28T02:13:53.000Z,80.1
2022-09-28T02:15:10.084Z,80.1
2022-09-28T02:16:26.256Z,80
2022-09-28T02:17:42.460Z,80.1
2022-09-28T02:18:58.392Z,80.2
2022-09-28T02:20:14.567Z,80.2
2022-09-28T02:21:30.767Z,80.1
2022-09-28T02:22:47.208Z,80.1
2022-09-28T02:24:03.138Z,79.9
2022-09-28T02:25:19.599Z,80.2
2022-09-28T02:26:35.000Z,80.1
2022-09-28T02:27:51.976Z,80.1
2022-09-28T02:29:07.905Z,80.1
2022-09-28T02:30:23.104Z,80.1
2022-09-28T02:31:39.554Z,80.1
2022-09-28T02:32:55.491Z,80.2
2022-09-28T02:34:11.926Z,80.1
2022-09-28T02:35:28.121Z,80
2022-09-28T02:36:44.046Z,80
2022-09-28T02:38:00.227Z,80
2022-09-28T02:39:16.691Z,80.1
2022-09-28T02:40:32.873Z,80
2022-09-28T02:41:49.054Z,80.1
2022-09-28T02:43:04.996Z,80.1
2022-09-28T02:44:21.176Z,80.1
2022-09-28T02:45:37.627Z,80
2022-09-28T02:46:52.568Z,80.2
2022-09-28T02:48:09.014Z,80.1
2022-09-28T02:49:25.212Z,80.2
2022-09-28T02:50:41.397Z,79.9
2022-09-28T02:51:57.323Z,80.1
2022-09-28T02:53:13.783Z,80.2
2022-09-28T02:54:29.970Z,80.1
2022-09-28T02:55:45.883Z,80.1
2022-09-28T02:57:02.345Z,80.2
2022-09-28T02:58:18.530Z,80.1
2022-09-28T02:59:34.468Z,80.1
2022-09-28T03:00:50.914Z,80.1
2022-09-28T03:03:23.027Z,80
2022-09-28T03:04:38.492Z,80.1
2022-09-28T03:05:54.694Z,80.2
2022-09-28T03:07:10.617Z,80.2
2022-09-28T03:08:26.806Z,80.1
2022-09-28T03:09:43.245Z,80.1
2022-09-28T03:10:59.448Z,80.1
2022-09-28T03:12:15.369Z,80.1
2022-09-28T03:13:31.811Z,80.1
2022-09-28T03:14:47.739Z,80.1
2022-09-28T03:16:04.188Z,80.1
2022-09-28T03:17:20.376Z,80.1
2022-09-28T03:18:36.585Z,80
2022-09-28T03:19:52.766Z,80.1
2022-09-28T03:21:07.964Z,80.1
2022-09-28T03:22:23.901Z,80.1
2022-09-28T03:23:40.084Z,80.1
2022-09-28T03:24:56.542Z,80.1
2022-09-28T03:26:12.452Z,80.1
2022-09-28T03:27:28.925Z,80
2022-09-28T03:28:45.108Z,80.1
2022-09-28T03:30:01.024Z,80.2
2022-09-28T03:31:17.487Z,80.1
2022-09-28T03:32:33.390Z,80
2022-09-28T03:33:49.855Z,80.1
2022-09-28T03:35:05.782Z,80.1
2022-09-28T03:36:22.228Z,80.2
2022-09-28T03:37:37.167Z,80.1
2022-09-28T03:38:53.622Z,80.3
2022-09-28T03:40:09.554Z,80.1
2022-09-28T03:41:26.012Z,80.2
2022-09-28T03:42:41.923Z,80.1
2022-09-28T03:43:57.404Z,80.1
2022-09-28T03:45:13.332Z,80.2
2022-09-28T03:46:29.510Z,80.2
2022-09-28T03:47:45.970Z,80
2022-09-28T03:49:02.166Z,80.1
2022-09-28T03:50:18.357Z,80.3
2022-09-28T03:51:34.544Z,80.3
2022-09-28T03:52:50.465Z,80.3
2022-09-28T03:54:06.927Z,80.3
2022-09-28T03:55:22.845Z,80.3
2022-09-28T03:56:39.291Z,80.3
2022-09-28T03:57:55.484Z,80.3
2022-09-28T03:59:11.408Z,80.3
2022-09-28T04:00:26.617Z,80.3
2022-09-28T04:01:43.081Z,80.3
2022-09-28T04:02:59.256Z,80.3
2022-09-28T04:04:15.443Z,80.3
2022-09-28T04:05:31.632Z,80.3
2022-09-28T04:06:47.827Z,80.2
2022-09-28T04:08:03.731Z,80.3
2022-09-28T04:09:20.209Z,80.3
2022-09-28T04:10:36.122Z,80.3
2022-09-28T04:11:52.309Z,80.3
2022-09-28T04:13:08.495Z,80.3
2022-09-28T04:14:24.962Z,80.3
2022-09-28T04:15:40.872Z,80.3
2022-09-28T04:16:56.354Z,80.4
2022-09-28T04:18:12.257Z,80.3
2022-09-28T04:19:28.740Z,80.3
2022-09-28T04:20:44.650Z,80.3
2022-09-28T04:22:01.120Z,80.3
2022-09-28T04:23:17.028Z,80.3
2022-09-28T04:24:33.204Z,80.2
2022-09-28T04:25:49.401Z,80.3
2022-09-28T04:27:05.863Z,80.3
2022-09-28T04:28:22.065Z,80.3
2022-09-28T04:29:38.249Z,80.3
2022-09-28T04:30:54.442Z,80.3
2022-09-28T04:32:10.617Z,80.2
2022-09-28T04:33:25.834Z,80.1
2022-09-28T04:34:42.012Z,80.3
2022-09-28T04:35:58.205Z,80.2
2022-09-28T04:37:14.105Z,80.2
2022-09-28T04:38:30.302Z,80.3
2022-09-28T04:39:46.772Z,80.3
2022-09-28T04:41:02.964Z,80.2
2022-09-28T04:42:19.158Z,80.2
2022-09-28T04:43:35.061Z,80.2
2022-09-28T04:44:51.527Z,80.2
2022-09-28T04:46:07.439Z,80.2
2022-09-28T04:47:23.903Z,80.2
2022-09-28T04:48:39.812Z,80.2
2022-09-28T04:49:55.014Z,80.2
2022-09-28T04:51:11.497Z,80.2
2022-09-28T04:52:27.385Z,80.2
2022-09-28T04:53:43.584Z,80.2
2022-09-28T04:55:00.051Z,80.2
2022-09-28T04:56:16.244Z,80.1
2022-09-28T04:57:32.436Z,80.1
2022-09-28T04:58:48.620Z,80.1
2022-09-28T05:00:04.818Z,80.2
2022-09-28T05:01:20.716Z,80.1
2022-09-28T05:02:36.912Z,80.1
2022-09-28T05:03:53.092Z,80.1
2022-09-28T05:05:09.569Z,80.1
2022-09-28T05:06:24.483Z,80.1
2022-09-28T05:07:40.974Z,80.1
2022-09-28T05:08:56.868Z,80.1
2022-09-28T05:10:13.338Z,80.1
2022-09-28T05:11:29.524Z,79.9
2022-09-28T05:12:45.729Z,80
2022-09-28T05:14:01.610Z,80
2022-09-28T05:15:17.811Z,80
2022-09-28T05:16:33.997Z,80.1
2022-09-28T05:17:50.475Z,80.2
2022-09-28T05:19:06.670Z,80.2
2022-09-28T05:20:22.859Z,80
2022-09-28T05:21:39.047Z,80.2
2022-09-28T05:22:53.945Z,80
2022-09-28T05:24:10.153Z,80.1
2022-09-28T05:25:26.631Z,80.1
2022-09-28T05:26:42.513Z,80
2022-09-28T05:27:58.701Z,80
2022-09-28T05:29:15.185Z,79.8
2022-09-28T05:30:31.392Z,79.8
2022-09-28T05:31:47.287Z,79.8
2022-09-28T05:33:03.759Z,80
2022-09-28T05:34:19.949Z,79.8
2022-09-28T05:35:36.131Z,79.8
2022-09-28T05:36:52.320Z,79.8
2022-09-28T05:38:08.518Z,79.9
2022-09-28T05:39:23.436Z,79.8
2022-09-28T05:40:39.908Z,79.8
2022-09-28T05:41:55.804Z,79.8
2022-09-28T05:43:11.995Z,79.7
2022-09-28T05:44:28.486Z,79.8
2022-09-28T05:45:44.677Z,79.6
2022-09-28T05:47:00.862Z,79.7
2022-09-28T05:48:17.040Z,79.6
2022-09-28T05:49:33.229Z,79.6
2022-09-28T05:50:49.115Z,79.7
2022-09-28T05:52:05.320Z,79.6
2022-09-28T05:53:21.502Z,79.6
2022-09-28T05:54:37.963Z,79.6
2022-09-28T05:55:53.201Z,79.5
2022-09-28T05:57:09.386Z,79.6
2022-09-28T05:58:25.583Z,79.6
2022-09-28T05:59:41.761Z,80.2
2022-09-28T06:00:57.912Z,80.2
2022-09-28T06:02:14.114Z,80.2
2022-09-28T06:03:30.325Z,80.2
2022-09-28T06:04:46.485Z,80.2
2022-09-28T06:06:02.678Z,80.1
2022-09-28T06:07:18.903Z,80
2022-09-28T06:08:35.087Z,79.9
2022-09-28T06:09:51.237Z,79.8
2022-09-28T06:11:07.470Z,81.6
2022-09-28T06:12:22.660Z,83.5
2022-09-28T06:13:38.855Z,83.6
2022-09-28T06:14:55.047Z,83.5
2022-09-28T06:16:11.241Z,83.2
2022-09-28T06:17:27.386Z,82.9
2022-09-28T06:18:43.572Z,82.7
2022-09-28T06:19:59.797Z,82.1
2022-09-28T06:21:15.990Z,81.8
2022-09-28T06:22:32.178Z,81.8
2022-09-28T06:23:48.375Z,81.5
2022-09-28T06:25:04.527Z,81.3
2022-09-28T06:26:20.752Z,81.1
2022-09-28T06:27:36.937Z,80.8
2022-09-28T06:28:53.116Z,80.7
2022-09-28T06:30:08.323Z,80.5
2022-09-28T06:31:24.483Z,80.4
2022-09-28T06:32:40.667Z,80.4
2022-09-28T06:33:56.850Z,80.2
2022-09-28T06:35:13.043Z,80.2
2022-09-28T06:36:29.279Z,80.2
2022-09-28T06:37:45.475Z,80.1
2022-09-28T06:39:01.650Z,80.2
2022-09-28T06:40:17.797Z,80.1
2022-09-28T06:41:34.029Z,80.1
2022-09-28T06:42:50.227Z,80
2022-09-28T06:44:06.373Z,79.9
2022-09-28T06:45:22.605Z,79.8
2022-09-28T06:46:37.810Z,79.8
2022-09-28T06:47:53.945Z,79.8
2022-09-28T06:49:10.189Z,79.7
2022-09-28T06:50:26.341Z,79.7
2022-09-28T06:51:42.552Z,79.6
2022-09-28T06:52:58.746Z,79.7
2022-09-28T06:54:14.941Z,79.5
2022-09-28T06:55:31.082Z,79.5
2022-09-28T06:56:47.279Z,79.5
2022-09-28T06:58:03.514Z,79.5
2022-09-28T06:59:19.651Z,79.5
2022-09-28T07:00:35.886Z,79.4
2022-09-28T07:01:52.072Z,79.4
2022-09-28T07:03:07.238Z,79.3
2022-09-28T07:04:23.412Z,79.3
2022-09-28T07:05:39.614Z,79.2
2022-09-28T07:06:55.848Z,79.2
2022-09-28T07:08:12.030Z,79.2
2022-09-28T07:09:28.166Z,79.2
2022-09-28T07:10:44.356Z,79
2022-09-28T07:12:00.598Z,79.1
2022-09-28T07:13:16.798Z,79
2022-09-28T07:14:32.987Z,79
2022-09-28T07:15:49.123Z,78.8
2022-09-28T07:17:05.353Z,78.8
2022-09-28T07:18:21.503Z,78.7
2022-09-28T07:19:36.758Z,78.8
2022-09-28T07:20:52.945Z,78.7
2022-09-28T07:22:09.080Z,78.7
2022-09-28T07:23:25.274Z,78.5
2022-09-28T07:24:41.445Z,78.5
2022-09-28T07:25:57.648Z,78.5
2022-09-28T07:27:13.883Z,78.4
2022-09-28T07:28:30.057Z,78.4
2022-09-28T07:29:46.260Z,78.4
2022-09-28T07:31:02.432Z,78.3
2022-09-28T07:32:18.623Z,78.2
2022-09-28T07:33:34.770Z,78.2
2022-09-28T07:34:50.945Z,78.2
2022-09-28T07:36:06.202Z,78.2
2022-09-28T07:37:22.396Z,78.1
2022-09-28T07:38:38.572Z,77.9
2022-09-28T07:39:54.761Z,78
2022-09-28T07:41:10.957Z,78
2022-09-28T07:42:27.137Z,78
2022-09-28T07:43:43.271Z,77.9
2022-09-28T07:44:59.524Z,78
2022-09-28T07:46:15.702Z,77.8
2022-09-28T07:47:31.890Z,77.8
2022-09-28T07:48:48.024Z,77.7
2022-09-28T07:50:04.275Z,77.6
2022-09-28T07:51:20.450Z,77.7
2022-09-28T07:52:35.651Z,77.5
2022-09-28T07:53:51.835Z,77.5
2022-09-28T07:55:08.036Z,77.4
2022-09-28T07:56:24.151Z,77.3
2022-09-28T07:57:40.398Z,77.2
2022-09-28T07:58:55.612Z,77.2
2022-09-28T08:00:11.792Z,77.1
2022-09-28T08:01:27.940Z,77.1
2022-09-28T08:02:44.111Z,77
2022-09-28T08:04:00.359Z,77
2022-09-28T08:05:16.553Z,77
2022-09-28T08:06:32.738Z,76.9
2022-09-28T08:07:48.861Z,76.9
2022-09-28T08:09:05.113Z,76.7
2022-09-28T08:10:21.308Z,76.7
2022-09-28T08:11:37.421Z,76.6
2022-09-28T08:12:53.617Z,76.6
2022-09-28T08:14:09.859Z,76.2
2022-09-28T08:15:25.056Z,76.3
2022-09-28T08:16:41.185Z,76.1
2022-09-28T08:17:57.437Z,76.2
2022-09-28T08:19:13.560Z,75.9
2022-09-28T08:20:29.815Z,75.8
2022-09-28T08:21:45.996Z,75.8
2022-09-28T08:23:02.180Z,76
2022-09-28T08:24:18.386Z,75.7
2022-09-28T08:25:34.503Z,75.8
2022-09-28T08:26:50.679Z,75.7
2022-09-28T08:28:06.941Z,75.5
2022-09-28T08:29:23.134Z,75.5
2022-09-28T08:30:39.313Z,75.5
2022-09-28T08:31:54.519Z,75.5
2022-09-28T08:33:10.645Z,75.3
2022-09-28T08:34:26.896Z,75.3
2022-09-28T08:35:43.017Z,75.1
2022-09-28T08:36:59.260Z,75.1
2022-09-28T08:38:15.386Z,75.1
2022-09-28T08:39:31.646Z,75.1
2022-09-28T08:40:47.836Z,75.1
2022-09-28T08:42:03.958Z,75
2022-09-28T08:43:20.144Z,75
2022-09-28T08:44:36.391Z,75.1
2022-09-28T08:45:52.506Z,75
2022-09-28T08:47:08.691Z,75
2022-09-28T08:48:23.972Z,74.9
2022-09-28T08:49:40.090Z,75.1
2022-09-28T08:50:56.262Z,75.1
2022-09-28T08:52:12.519Z,75.1
2022-09-28T08:53:28.717Z,75.1
2022-09-28T08:54:44.831Z,75
2022-09-28T08:56:01.084Z,74.9
2022-09-28T08:57:17.200Z,74.8
2022-09-28T08:58:33.460Z,74.8
2022-09-28T08:59:49.659Z,74.9
2022-09-28T09:01:05.766Z,74.7
2022-09-28T09:02:22.030Z,74.8
2022-09-28T09:03:38.135Z,74.8
2022-09-28T09:04:53.415Z,74.8
2022-09-28T09:06:09.610Z,74.8
2022-09-28T09:07:25.712Z,74.9
2022-09-28T09:08:41.978Z,74.8
2022-09-28T09:09:58.089Z,74.8
2022-09-28T09:11:14.278Z,74.9
2022-09-28T09:12:30.463Z,75
2022-09-28T09:13:46.722Z,75.1
2022-09-28T09:15:02.924Z,75.1
2022-09-28T09:16:19.038Z,75
2022-09-28T09:17:35.208Z,75
2022-09-28T09:18:51.475Z,74.7
2022-09-28T09:20:07.587Z,74.7
2022-09-28T09:21:22.875Z,74.8
2022-09-28T09:22:39.046Z,74.8
2022-09-28T09:23:55.172Z,74.8
2022-09-28T09:25:11.437Z,74.8
2022-09-28T09:26:27.610Z,74.8
2022-09-28T09:27:43.726Z,74.7
2022-09-28T09:28:59.911Z,74.4
2022-09-28T09:30:16.102Z,74.4
2022-09-28T09:31:32.361Z,74.5
2022-09-28T09:32:48.483Z,74.6
2022-09-28T09:34:04.656Z,74.5
2022-09-28T09:35:20.848Z,74.6
2022-09-28T09:36:37.118Z,74.7
2022-09-28T09:37:52.328Z,74.7
2022-09-28T09:39:08.426Z,74.7
2022-09-28T09:40:24.693Z,74.6
2022-09-28T09:41:40.881Z,74.5
2022-09-28T09:42:57.065Z,74.4
2022-09-28T09:44:13.169Z,74
2022-09-28T09:45:29.360Z,74
2022-09-28T09:46:45.621Z,74.2
2022-09-28T09:48:01.820Z,74.2
2022-09-28T09:49:17.921Z,74
2022-09-28T09:50:34.200Z,73.7
2022-09-28T09:51:50.372Z,73.6
2022-09-28T09:53:06.567Z,73.5
2022-09-28T09:54:21.695Z,73.4
2022-09-28T09:55:37.964Z,73.4
2022-09-28T09:56:54.074Z,73.3
2022-09-28T09:58:10.251Z,73.3
2022-09-28T09:59:26.523Z,73.4
2022-09-28T10:00:42.625Z,73.4
2022-09-28T10:01:58.903Z,73.4
2022-09-28T10:03:15.081Z,73.2
2022-09-28T10:04:31.261Z,73.1
2022-09-28T10:05:47.449Z,73
2022-09-28T10:07:03.652Z,72.4
2022-09-28T10:08:19.831Z,72.4
2022-09-28T10:09:36.016Z,72.7
2022-09-28T10:10:51.228Z,72.7
2022-09-28T10:12:07.332Z,72.8
2022-09-28T10:13:23.517Z,72.9
2022-09-28T10:14:39.778Z,73
2022-09-28T10:15:55.964Z,72.2
2022-09-28T10:17:12.154Z,72.1
2022-09-28T10:18:28.349Z,72
2022-09-28T10:19:44.439Z,71.8
2022-09-28T10:21:00.632Z,71.7
2022-09-28T10:22:16.899Z,71.5
2022-09-28T10:23:33.089Z,71.8
2022-09-28T10:24:49.281Z,70.7
2022-09-28T10:26:05.477Z,71.5
2022-09-28T10:27:20.666Z,71.7
2022-09-28T10:28:36.852Z,71.4
2022-09-28T10:29:53.043Z,70.9
2022-09-28T10:31:09.237Z,70.2
2022-09-28T10:32:25.419Z,69.9
2022-09-28T10:33:41.612Z,70
2022-09-28T10:34:57.801Z,70.2
2022-09-28T10:36:13.906Z,69.9
2022-09-28T10:37:30.167Z,69.5
2022-09-28T10:38:46.267Z,70.4
2022-09-28T10:40:02.537Z,70.5
2022-09-28T10:41:18.649Z,69.9
2022-09-28T10:42:34.824Z,69.3
2022-09-28T10:43:50.133Z,69.5
2022-09-28T10:45:06.230Z,69.9
2022-09-28T10:46:22.493Z,69.8
2022-09-28T10:47:38.681Z,69.8
2022-09-28T10:48:54.886Z,70.3
2022-09-28T10:50:11.068Z,69.9
2022-09-28T10:51:27.165Z,70
2022-09-28T10:52:43.429Z,69.9
2022-09-28T10:53:59.538Z,70.5
2022-09-28T10:55:15.725Z,70.2
2022-09-28T10:56:31.991Z,70.1
2022-09-28T10:57:48.101Z,70.1
2022-09-28T10:59:04.281Z,69.9
2022-09-28T11:00:19.583Z,70.2
2022-09-28T11:01:35.773Z,70.9
2022-09-28T11:02:51.948Z,70.4
2022-09-28T11:04:08.136Z,70.3
2022-09-28T11:05:24.222Z,70.5
2022-09-28T11:06:40.422Z,70.6
2022-09-28T11:07:56.696Z,70.9
2022-09-28T11:09:12.884Z,70.8
2022-09-28T11:10:29.084Z,70.9
2022-09-28T11:11:45.158Z,70.6
2022-09-28T11:13:01.442Z,70.2
2022-09-28T11:14:17.534Z,70.4
2022-09-28T11:15:33.833Z,70.2
2022-09-28T11:16:49.022Z,70.2
2022-09-28T11:18:05.217Z,70.3
2022-09-28T11:19:21.407Z,70
2022-09-28T11:20:37.491Z,70.2
2022-09-28T11:21:53.784Z,69.7
2022-09-28T11:23:09.958Z,70
2022-09-28T11:24:26.159Z,70.2
2022-09-28T11:25:42.245Z,70
2022-09-28T11:26:58.519Z,70
2022-09-28T11:28:14.723Z,69.7
2022-09-28T11:29:30.806Z,70
2022-09-28T11:30:47.083Z,69.8
2022-09-28T11:32:03.270Z,70
2022-09-28T11:33:18.483Z,69.9
2022-09-28T11:34:34.676Z,70.2
2022-09-28T11:35:50.851Z,70.3
2022-09-28T11:37:06.950Z,69.8
2022-09-28T11:38:23.237Z,69.9
2022-09-28T11:39:39.414Z,70.4
2022-09-28T11:40:55.602Z,70
2022-09-28T11:42:11.790Z,70
2022-09-28T11:43:27.878Z,70.1
2022-09-28T11:44:44.000Z,70.2
2022-09-28T11:46:00.354Z,69.7
2022-09-28T11:47:16.544Z,70
2022-09-28T11:48:32.621Z,69.7
2022-09-28T11:49:47.931Z,69.4
2022-09-28T11:51:04.120Z,69.2
2022-09-28T11:52:20.315Z,70
2022-09-28T11:53:36.491Z,69.5
2022-09-28T11:54:52.681Z,68.8
2022-09-28T11:56:08.875Z,69
2022-09-28T11:57:25.067Z,69
2022-09-28T11:58:41.250Z,68.8
2022-09-28T11:59:57.321Z,68.9
2022-09-28T12:01:13.522Z,68.8
2022-09-28T12:02:29.798Z,68.6
2022-09-28T12:03:45.996Z,67.9
2022-09-28T12:05:02.068Z,67.9
2022-09-28T12:06:17.376Z,67.9
2022-09-28T12:07:33.471Z,67.7
2022-09-28T12:08:49.764Z,67.8
2022-09-28T12:10:05.956Z,67.9
2022-09-28T12:11:22.016Z,67.7
2022-09-28T12:12:38.321Z,67.4
2022-09-28T12:13:53.549Z,67.3
2022-09-28T12:15:09.599Z,67.6
2022-09-28T12:16:25.902Z,67.7
2022-09-28T12:17:42.091Z,67.6
2022-09-28T12:18:58.285Z,67.3
2022-09-28T12:20:14.366Z,67.2
2022-09-28T12:21:30.660Z,67.3
2022-09-28T12:22:46.732Z,67.7
2022-09-28T12:24:03.023Z,67.9
2022-09-28T12:25:19.211Z,67.8
2022-09-28T12:26:35.403Z,68.1
2022-09-28T12:27:51.595Z,68
2022-09-28T12:29:07.781Z,68.2
2022-09-28T12:30:22.878Z,68.5
2022-09-28T12:31:39.169Z,68.6
2022-09-28T12:32:55.367Z,68.7
2022-09-28T12:34:11.421Z,68.8
2022-09-28T12:35:27.741Z,68.9
2022-09-28T12:36:43.796Z,68.7
2022-09-28T12:37:59.998Z,68.6
2022-09-28T12:39:16.286Z,68.7
2022-09-28T12:40:32.475Z,68.4
2022-09-28T12:41:48.669Z,68.6
2022-09-28T12:43:04.855Z,68.5
2022-09-28T12:44:21.049Z,68.8
2022-09-28T12:45:37.243Z,68.5
2022-09-28T12:46:52.434Z,68.3
2022-09-28T12:48:08.629Z,68.7
2022-09-28T12:49:24.809Z,68.8
2022-09-28T12:50:40.873Z,69.2
2022-09-28T12:51:57.184Z,69.3
2022-09-28T12:53:13.259Z,69
2022-09-28T12:54:29.436Z,69
2022-09-28T12:55:45.750Z,69.2
2022-09-28T12:57:01.940Z,69.3
2022-09-28T12:58:18.007Z,69.2
2022-09-28T12:59:34.308Z,69
2022-09-28T13:00:50.370Z,69
2022-09-28T13:02:06.691Z,69.2
2022-09-28T13:03:21.891Z,69.2
2022-09-28T13:04:38.069Z,69.3
2022-09-28T13:05:54.147Z,69.7
2022-09-28T13:07:10.445Z,69.3
2022-09-28T13:08:26.513Z,69.9
2022-09-28T13:09:42.832Z,69.6
2022-09-28T13:10:59.017Z,70
2022-09-28T13:12:15.196Z,69.8
2022-09-28T13:13:31.385Z,69.7
2022-09-28T13:14:47.565Z,69.8
2022-09-28T13:16:03.637Z,69.9
2022-09-28T13:17:19.940Z,69.9
2022-09-28T13:18:36.143Z,70
2022-09-28T13:19:51.347Z,69.7
2022-09-28T13:21:07.517Z,69.7
2022-09-28T13:22:23.703Z,69.7
2022-09-28T13:23:39.777Z,69.9
2022-09-28T13:24:56.086Z,69.9
2022-09-28T13:26:12.270Z,69.7
2022-09-28T13:27:28.470Z,69.5
2022-09-28T13:28:44.519Z,69.2
2022-09-28T13:30:00.717Z,69.2
2022-09-28T13:31:17.022Z,68.8
2022-09-28T13:32:33.216Z,68.8
2022-09-28T13:33:49.397Z,69.2
2022-09-28T13:35:05.581Z,68.8
2022-09-28T13:36:20.791Z,69
2022-09-28T13:37:36.970Z,69.3
2022-09-28T13:38:53.172Z,68.8
2022-09-28T13:40:09.225Z,69.2
2022-09-28T13:41:25.541Z,69.3
2022-09-28T13:42:41.720Z,68.5
2022-09-28T13:43:57.779Z,68.2
2022-09-28T13:45:14.105Z,68.2
2022-09-28T13:46:30.288Z,68.5
2022-09-28T13:47:46.471Z,68.5
2022-09-28T13:49:02.667Z,68.3
2022-09-28T13:50:18.849Z,68.3
2022-09-28T13:51:35.049Z,68.7
2022-09-28T13:52:50.235Z,68.5
2022-09-28T13:54:06.300Z,68.6
2022-09-28T13:55:22.620Z,68.3
2022-09-28T13:56:38.666Z,68.8
2022-09-28T13:57:54.988Z,68.5
2022-09-28T13:59:11.048Z,68.1
2022-09-28T14:00:27.368Z,68.2
2022-09-28T14:01:43.424Z,68.5
2022-09-28T14:02:59.732Z,68.5
2022-09-28T14:04:15.796Z,68.5
2022-09-28T14:05:32.124Z,68.7
2022-09-28T14:06:48.308Z,68.4
2022-09-28T14:08:04.489Z,68.2
2022-09-28T14:09:19.565Z,68.4
2022-09-28T14:10:35.891Z,67.9
2022-09-28T14:11:51.938Z,68.1
2022-09-28T14:13:08.260Z,67.3
2022-09-28T14:14:24.454Z,68.1
2022-09-28T14:15:40.488Z,67.9
2022-09-28T14:16:56.689Z,68.2
2022-09-28T14:18:13.001Z,68.4
2022-09-28T14:19:29.190Z,68.4
2022-09-28T14:20:45.384Z,68
2022-09-28T14:22:01.422Z,68.2
2022-09-28T14:23:17.758Z,67.6
2022-09-28T14:24:33.809Z,68.2
2022-09-28T14:25:49.149Z,68.1
2022-09-28T14:27:05.200Z,68.2
2022-09-28T14:28:21.522Z,67.9
2022-09-28T14:29:37.710Z,68
2022-09-28T14:30:53.893Z,68
2022-09-28T14:32:09.937Z,67.7
2022-09-28T14:33:26.275Z,68.1
2022-09-28T14:34:42.308Z,68.3
2022-09-28T14:35:58.650Z,68.4
2022-09-28T14:37:14.835Z,68.5
2022-09-28T14:38:31.030Z,68.4
2022-09-28T14:39:47.074Z,68.5
2022-09-28T14:41:03.405Z,68.6
2022-09-28T14:42:18.601Z,68.8
2022-09-28T14:43:34.780Z,68.9
2022-09-28T14:44:50.979Z,69
2022-09-28T14:46:07.018Z,69.1
2022-09-28T14:47:23.341Z,69.3
2022-09-28T14:48:39.544Z,69.3
2022-09-28T14:49:55.734Z,69.5
2022-09-28T14:51:11.910Z,69.7
2022-09-28T14:52:28.107Z,69.8
2022-09-28T14:53:44.138Z,69.9
2022-09-28T14:55:00.339Z,69.9
2022-09-28T14:56:16.653Z,69.8
2022-09-28T14:57:32.853Z,69.9
2022-09-28T14:58:47.903Z,69.9
2022-09-28T15:00:04.095Z,69.9
2022-09-28T15:01:20.430Z,69.8
2022-09-28T15:02:36.467Z,69.5
2022-09-28T15:03:52.810Z,69.5
2022-09-28T15:05:08.845Z,69.5
2022-09-28T15:06:25.170Z,69.3
2022-09-28T15:07:41.210Z,69.3
2022-09-28T15:08:57.397Z,69.3
2022-09-28T15:10:13.733Z,69.3
2022-09-28T15:11:29.930Z,69.3
2022-09-28T15:12:46.108Z,69.3
2022-09-28T15:14:02.300Z,69.3
2022-09-28T15:15:17.499Z,69.3
2022-09-28T15:16:33.692Z,69.3
2022-09-28T15:17:49.719Z,69
2022-09-28T15:19:06.057Z,69
2022-09-28T15:20:22.249Z,69.2
2022-09-28T15:21:38.433Z,69.3
2022-09-28T15:22:54.476Z,69.5
2022-09-28T15:24:10.815Z,69.3
2022-09-28T15:25:26.854Z,69.5
2022-09-28T15:26:43.189Z,69.5
2022-09-28T15:27:59.375Z,69.5
2022-09-28T15:29:15.555Z,69.7
2022-09-28T15:30:31.761Z,69.9
2022-09-28T15:31:46.796Z,69.9
2022-09-28T15:33:02.990Z,70
2022-09-28T15:34:19.330Z,69.9
2022-09-28T15:35:35.523Z,69.9
2022-09-28T15:36:51.698Z,69.8
2022-09-28T15:38:07.732Z,69.6
2022-09-28T15:39:24.071Z,69.9
2022-09-28T15:40:40.113Z,70
2022-09-28T15:41:56.464Z,70.2
2022-09-28T15:43:12.641Z,70.2
2022-09-28T15:44:28.826Z,70.2
2022-09-28T15:45:45.015Z,70.5
2022-09-28T15:47:01.194Z,70.7
2022-09-28T15:48:16.248Z,70.6
2022-09-28T15:49:32.599Z,70.3
2022-09-28T15:50:48.630Z,70.4
2022-09-28T15:52:04.968Z,70.5
2022-09-28T15:53:21.159Z,70.7
2022-09-28T15:54:37.349Z,71.1
2022-09-28T15:55:53.372Z,71
2022-09-28T15:57:09.711Z,70.9
2022-09-28T15:58:25.747Z,71.1
2022-09-28T15:59:42.090Z,71.2
2022-09-28T16:00:58.276Z,71.4
2022-09-28T16:02:14.468Z,71.3
2022-09-28T16:03:30.499Z,71.4
2022-09-28T16:04:45.852Z,71.3
2022-09-28T16:06:02.050Z,71.6
2022-09-28T16:07:18.239Z,71.5
2022-09-28T16:08:34.426Z,71.5
2022-09-28T16:09:50.606Z,71.6
2022-09-28T16:11:06.629Z,71.8
2022-09-28T16:12:22.972Z,71.7
2022-09-28T16:13:39.172Z,71.5
2022-09-28T16:14:55.199Z,71.6
2022-09-28T16:16:11.548Z,71.8
2022-09-28T16:17:27.738Z,72
2022-09-28T16:18:43.764Z,72
2022-09-28T16:20:00.128Z,72.2
2022-09-28T16:21:15.137Z,72.2
2022-09-28T16:22:31.507Z,72.1
2022-09-28T16:23:47.523Z,72.1
2022-09-28T16:25:03.700Z,72.5
2022-09-28T16:26:19.900Z,72.4
2022-09-28T16:27:36.076Z,72.4
2022-09-28T16:28:51.451Z,72.4
2022-09-28T16:30:07.471Z,72.1
2022-09-28T16:31:23.822Z,72.4
2022-09-28T16:32:40.008Z,72.5
2022-09-28T16:33:56.203Z,72.5
2022-09-28T16:35:12.382Z,72.6
2022-09-28T16:36:28.574Z,72.7
2022-09-28T16:37:44.759Z,72.6
2022-09-28T16:39:00.784Z,72.7
2022-09-28T16:40:16.978Z,72.8
2022-09-28T16:41:33.164Z,72.9
2022-09-28T16:42:49.514Z,73
2022-09-28T16:44:05.528Z,72.9
2022-09-28T16:45:20.909Z,73
2022-09-28T16:46:37.090Z,72.9
2022-09-28T16:47:53.277Z,73.2
2022-09-28T16:49:09.477Z,73.1
2022-09-28T16:50:25.654Z,72.9
2022-09-28T16:51:41.832Z,72.4
2022-09-28T16:52:58.039Z,72.5
2022-09-28T16:54:14.226Z,72.6
2022-09-28T16:55:30.234Z,72.5
2022-09-28T16:56:46.433Z,72.8
2022-09-28T16:58:02.783Z,73
2022-09-28T16:59:18.980Z,72.9
2022-09-28T17:00:35.157Z,73.1
2022-09-28T17:01:50.358Z,73.3